createdAt,value
2018-01-19T00:02:01.820Z,43.72
2018-01-19T00:04:33.948Z,44.22
2018-01-19T00:07:01.711Z,44.14
2018-01-19T00:09:29.476Z,44.18
2018-01-19T00:11:57.707Z,43.91
2018-01-19T00:14:25.912Z,44.08
2018-01-19T00:16:54.138Z,43.90
2018-01-19T00:19:22.129Z,43.63
2018-01-19T00:21:54.123Z,43.74
2018-01-19T00:24:24.348Z,44.31
2018-01-19T00:26:52.719Z,44.94
2018-01-19T00:29:20.968Z,44.48
2018-01-19T00:31:53.171Z,43.87
2018-01-19T00:34:25.270Z,44.02
2018-01-19T00:36:53.461Z,44.14
2018-01-19T00:39:23.574Z,44.15
2018-01-19T00:41:51.743Z,44.02
2018-01-19T00:44:19.977Z,44.21
2018-01-19T00:46:52.958Z,44.21
2018-01-19T00:49:20.873Z,44.54
2018-01-19T00:51:50.956Z,44.27
2018-01-19T00:54:19.010Z,43.96
2018-01-19T00:56:47.235Z,43.87
2018-01-19T00:59:15.201Z,43.76
2018-01-19T01:01:47.538Z,44.67
2018-01-19T01:04:17.752Z,44.96
2018-01-19T01:06:45.973Z,45.01
2018-01-19T01:09:13.937Z,45.06
2018-01-19T01:11:41.964Z,44.86
2018-01-19T01:14:09.793Z,45.08
2018-01-19T01:16:38.101Z,44.74
2018-01-19T01:19:06.132Z,45.54
2018-01-19T01:21:34.116Z,45.93
2018-01-19T01:24:02.810Z,45.53
2018-01-19T01:26:34.896Z,44.86
2018-01-19T01:29:07.059Z,45.15
2018-01-19T01:31:35.177Z,45.11
2018-01-19T01:34:03.367Z,45.30
2018-01-19T01:36:31.332Z,44.59
2018-01-19T01:38:59.381Z,44.67
2018-01-19T01:41:27.438Z,44.19
2018-01-19T01:43:55.689Z,44.62
2018-01-19T01:46:23.619Z,44.40
2018-01-19T01:49:03.412Z,44.98
2018-01-19T01:51:31.672Z,45.14
2018-01-19T01:53:59.614Z,45.75
2018-01-19T01:56:27.824Z,46.16
2018-01-19T01:58:56.083Z,45.61
2018-01-19T02:01:24.111Z,45.67
2018-01-19T02:03:54.252Z,45.10
2018-01-19T02:06:24.195Z,45.22
2018-01-19T02:08:52.172Z,44.64
2018-01-19T02:11:20.100Z,44.61
2018-01-19T02:13:50.155Z,44.28
2018-01-19T02:16:18.537Z,43.65
2018-01-19T02:18:49.108Z,43.12
2018-01-19T02:21:17.609Z,43.20
2018-01-19T02:23:45.576Z,43.88
2018-01-19T02:26:13.882Z,44.00
2018-01-19T02:28:42.260Z,43.92
2018-01-19T02:31:10.640Z,43.37
2018-01-19T02:33:39.031Z,43.29
2018-01-19T02:36:09.130Z,42.96
2018-01-19T02:38:37.069Z,43.19
2018-01-19T02:41:05.268Z,43.30
2018-01-19T02:43:33.251Z,43.36
2018-01-19T02:46:01.532Z,42.92
2018-01-19T02:48:31.939Z,43.16
2018-01-19T02:50:59.898Z,43.32
2018-01-19T02:53:28.089Z,42.92
2018-01-19T02:55:56.027Z,42.75
2018-01-19T02:58:26.220Z,42.29
2018-01-19T03:00:55.061Z,42.56
2018-01-19T03:03:25.087Z,43.15
2018-01-19T03:05:52.854Z,42.75
2018-01-19T03:08:20.706Z,43.08
2018-01-19T03:10:48.945Z,42.88
2018-01-19T03:13:17.246Z,42.48
2018-01-19T03:15:45.202Z,42.64
2018-01-19T03:18:13.391Z,42.52
2018-01-19T03:20:43.468Z,42.25
2018-01-19T03:23:11.674Z,42.94
2018-01-19T03:25:39.713Z,43.80
2018-01-19T03:28:07.701Z,43.79
2018-01-19T03:30:35.924Z,43.01
2018-01-19T03:33:06.550Z,42.52
2018-01-19T03:35:35.102Z,42.45
2018-01-19T03:38:03.065Z,43.08
2018-01-19T03:40:31.072Z,42.83
2018-01-19T03:42:58.831Z,43.05
2018-01-19T03:45:26.604Z,43.64
2018-01-19T03:47:54.734Z,43.47
2018-01-19T03:50:22.992Z,43.07
2018-01-19T03:52:50.992Z,43.26
2018-01-19T03:55:23.223Z,44.02
2018-01-19T03:57:51.550Z,44.38
2018-01-19T04:00:19.379Z,44.44
2018-01-19T04:02:47.570Z,44.82
2018-01-19T04:05:15.645Z,45.49
2018-01-19T04:07:43.610Z,44.97
2018-01-19T04:10:11.866Z,45.31
2018-01-19T04:12:39.858Z,45.39
2018-01-19T04:15:07.897Z,45.29
2018-01-19T04:17:35.857Z,45.02
2018-01-19T04:20:04.233Z,43.69
2018-01-19T04:22:32.002Z,43.22
2018-01-19T04:24:59.811Z,43.29
2018-01-19T04:27:28.050Z,43.21
2018-01-19T04:29:57.264Z,43.00
2018-01-19T04:32:25.231Z,42.90
2018-01-19T04:34:53.535Z,42.91
2018-01-19T04:37:25.607Z,42.86
2018-01-19T04:39:53.851Z,43.50
2018-01-19T04:42:22.092Z,43.67
2018-01-19T04:44:52.459Z,44.00
2018-01-19T04:47:20.498Z,44.20
2018-01-19T04:49:50.267Z,45.11
2018-01-19T04:52:18.552Z,45.02
2018-01-19T04:54:46.529Z,44.97
2018-01-19T04:57:18.536Z,45.66
2018-01-19T04:59:50.530Z,45.50
2018-01-19T05:02:22.599Z,45.25
2018-01-19T05:04:50.533Z,45.68
2018-01-19T05:07:18.596Z,46.15
2018-01-19T05:09:46.540Z,45.34
2018-01-19T05:12:14.309Z,44.89
2018-01-19T05:14:46.392Z,44.20
2018-01-19T05:17:14.592Z,45.50
2018-01-19T05:19:42.324Z,44.94
2018-01-19T05:22:10.288Z,44.21
2018-01-19T05:24:38.608Z,43.71
2018-01-19T05:27:06.987Z,44.02
2018-01-19T05:29:35.244Z,44.29
2018-01-19T05:32:03.141Z,43.74
2018-01-19T05:34:31.325Z,43.13
2018-01-19T05:36:59.575Z,44.20
2018-01-19T05:39:29.808Z,43.69
2018-01-19T05:41:57.639Z,42.91
2018-01-19T05:44:25.858Z,43.38
2018-01-19T05:46:53.712Z,43.42
2018-01-19T05:49:22.388Z,43.33
2018-01-19T05:51:50.233Z,44.03
2018-01-19T05:54:18.570Z,43.57
2018-01-19T05:56:46.432Z,43.25
2018-01-19T05:59:14.375Z,44.80
2018-01-19T06:01:45.063Z,44.50
2018-01-19T06:04:12.971Z,42.95
2018-01-19T06:06:43.191Z,43.45
2018-01-19T06:09:11.210Z,43.16
2018-01-19T06:11:41.224Z,42.83
2018-01-19T06:14:09.551Z,42.61
2018-01-19T06:16:41.805Z,42.05
2018-01-19T06:19:09.870Z,41.63
2018-01-19T06:21:37.761Z,41.47
2018-01-19T06:24:05.825Z,41.74
2018-01-19T06:26:33.609Z,41.88
2018-01-19T06:29:02.459Z,40.74
2018-01-19T06:31:32.298Z,40.40
2018-01-19T06:34:03.377Z,40.17
2018-01-19T06:36:37.556Z,40.13
2018-01-19T06:39:05.820Z,40.08
2018-01-19T06:41:33.859Z,39.92
2018-01-19T06:44:01.860Z,39.96
2018-01-19T06:46:29.616Z,40.02
2018-01-19T06:48:58.280Z,39.84
2018-01-19T06:51:25.942Z,39.50
2018-01-19T06:53:53.941Z,39.46
2018-01-19T06:56:22.790Z,39.18
2018-01-19T06:58:50.872Z,38.90
2018-01-19T07:01:19.060Z,38.58
2018-01-19T07:03:46.809Z,38.04
2018-01-19T07:06:14.891Z,37.66
2018-01-19T07:08:43.882Z,37.71
2018-01-19T07:11:11.858Z,37.72
2018-01-19T07:13:40.837Z,37.65
2018-01-19T07:16:14.983Z,37.51
2018-01-19T07:18:44.285Z,37.40
2018-01-19T07:21:14.509Z,36.91
2018-01-19T07:23:42.326Z,37.04
2018-01-19T07:26:10.515Z,37.08
2018-01-19T07:28:40.605Z,36.95
2018-01-19T07:31:08.697Z,36.89
2018-01-19T07:33:39.671Z,36.39
2018-01-19T07:36:07.502Z,36.38
2018-01-19T07:38:35.704Z,36.58
2018-01-19T07:41:03.834Z,36.47
2018-01-19T07:43:31.647Z,36.32
2018-01-19T07:46:03.563Z,36.27
2018-01-19T07:48:35.615Z,35.82
2018-01-19T07:51:09.788Z,35.82
2018-01-19T07:53:37.541Z,35.80
2018-01-19T07:56:05.319Z,35.81
2018-01-19T07:58:33.599Z,35.44
2018-01-19T08:01:01.631Z,35.33
2018-01-19T08:03:33.696Z,35.31
2018-01-19T08:06:01.687Z,35.44
2018-01-19T08:08:29.961Z,35.61
2018-01-19T08:10:58.045Z,35.70
2018-01-19T08:13:28.266Z,35.60
2018-01-19T08:15:56.105Z,35.53
2018-01-19T08:18:25.952Z,35.54
2018-01-19T08:20:53.752Z,35.56
2018-01-19T08:23:21.817Z,35.54
2018-01-19T08:25:50.772Z,35.28
2018-01-19T08:28:18.527Z,34.98
2018-01-19T08:30:50.839Z,34.65
2018-01-19T08:33:18.672Z,34.63
2018-01-19T08:35:52.897Z,34.64
2018-01-19T08:38:22.799Z,34.66
2018-01-19T08:40:50.563Z,34.59
2018-01-19T08:43:18.361Z,34.66
2018-01-19T08:45:50.870Z,34.54
2018-01-19T08:48:18.954Z,34.54
2018-01-19T08:50:55.169Z,34.64
2018-01-19T08:53:23.191Z,34.77
2018-01-19T08:55:51.223Z,34.88
2018-01-19T08:58:19.223Z,34.62
2018-01-19T09:00:49.297Z,34.43
2018-01-19T09:03:17.094Z,34.27
2018-01-19T09:05:47.045Z,34.37
2018-01-19T09:08:15.050Z,34.50
2018-01-19T09:10:43.094Z,34.65
2018-01-19T09:13:11.334Z,34.73
2018-01-19T09:15:39.375Z,34.68
2018-01-19T09:18:07.598Z,34.79
2018-01-19T09:20:35.381Z,34.87
2018-01-19T09:23:03.599Z,34.81
2018-01-19T09:25:31.597Z,34.77
2018-01-19T09:27:59.875Z,34.62
2018-01-19T09:30:27.842Z,34.67
2018-01-19T09:32:56.016Z,34.74
2018-01-19T09:35:26.056Z,34.69
2018-01-19T09:37:56.274Z,34.77
2018-01-19T09:40:24.428Z,34.59
2018-01-19T09:42:56.296Z,34.37
2018-01-19T09:45:24.511Z,34.48
2018-01-19T09:47:52.629Z,32.88
2018-01-19T09:50:20.548Z,33.56
2018-01-19T09:52:50.717Z,33.76
2018-01-19T09:55:18.546Z,34.16
2018-01-19T09:57:46.219Z,34.47
2018-01-19T10:00:15.239Z,34.67
2018-01-19T10:02:45.473Z,34.79
2018-01-19T10:05:13.530Z,34.69
2018-01-19T10:07:42.426Z,34.80
2018-01-19T10:10:14.599Z,34.94
2018-01-19T10:12:42.517Z,35.08
2018-01-19T10:15:10.636Z,35.10
2018-01-19T10:17:38.803Z,35.21
2018-01-19T10:20:07.054Z,35.28
2018-01-19T10:22:35.019Z,35.34
2018-01-19T10:25:03.685Z,35.47
2018-01-19T10:27:33.896Z,35.58
2018-01-19T10:30:01.931Z,35.69
2018-01-19T10:32:29.708Z,35.80
2018-01-19T10:34:59.608Z,35.99
2018-01-19T10:37:29.843Z,36.11
2018-01-19T10:39:59.829Z,36.19
2018-01-19T10:42:28.003Z,36.28
2018-01-19T10:44:56.088Z,36.32
2018-01-19T10:47:24.000Z,36.30
2018-01-19T10:49:52.189Z,36.11
2018-01-19T10:52:24.398Z,36.17
2018-01-19T10:54:52.510Z,36.34
2018-01-19T10:57:22.737Z,36.36
2018-01-19T10:59:51.071Z,36.30
2018-01-19T11:02:18.842Z,36.44
2018-01-19T11:04:47.065Z,36.56
2018-01-19T11:07:14.975Z,36.60
2018-01-19T11:09:47.038Z,36.54
2018-01-19T11:12:14.798Z,36.60
2018-01-19T11:14:45.029Z,36.62
2018-01-19T11:17:12.792Z,36.48
2018-01-19T11:19:44.605Z,36.41
2018-01-19T11:22:12.624Z,36.52
2018-01-19T11:24:44.720Z,36.31
2018-01-19T11:27:14.611Z,36.14
2018-01-19T11:29:42.682Z,36.20
2018-01-19T11:32:11.664Z,36.39
2018-01-19T11:34:39.470Z,36.53
2018-01-19T11:37:08.166Z,36.68
2018-01-19T11:39:42.101Z,36.87
2018-01-19T11:42:09.813Z,37.04
2018-01-19T11:44:39.707Z,37.05
2018-01-19T11:47:07.915Z,37.09
2018-01-19T11:49:40.179Z,37.23
2018-01-19T11:52:08.904Z,37.26
2018-01-19T11:54:36.621Z,37.24
2018-01-19T11:57:04.660Z,37.32
2018-01-19T11:59:32.501Z,37.44
2018-01-19T12:02:02.642Z,37.54
2018-01-19T12:04:30.718Z,37.42
2018-01-19T12:07:00.632Z,37.37
2018-01-19T12:09:28.392Z,37.49
2018-01-19T12:11:56.501Z,37.66
2018-01-19T12:14:24.523Z,37.73
2018-01-19T12:16:52.308Z,37.64
2018-01-19T12:19:26.524Z,37.59
2018-01-19T12:21:54.766Z,37.43
2018-01-19T12:24:22.696Z,37.52
2018-01-19T12:26:50.719Z,37.74
2018-01-19T12:29:18.865Z,37.83
2018-01-19T12:31:46.507Z,37.79
2018-01-19T12:34:16.784Z,37.94
2018-01-19T12:36:44.535Z,38.06
2018-01-19T12:39:14.779Z,38.16
2018-01-19T12:41:46.876Z,38.16
2018-01-19T12:44:15.059Z,38.19
2018-01-19T12:46:42.975Z,38.26
2018-01-19T12:49:10.736Z,38.50
2018-01-19T12:51:40.731Z,38.48
2018-01-19T12:54:08.920Z,38.54
2018-01-19T12:56:36.795Z,38.62
2018-01-19T12:59:08.847Z,38.74
2018-01-19T13:01:36.994Z,38.60
2018-01-19T13:04:05.282Z,38.47
2018-01-19T13:06:35.308Z,38.49
2018-01-19T13:09:07.888Z,38.66
2018-01-19T13:11:37.191Z,38.51
2018-01-19T13:14:06.183Z,38.22
2018-01-19T13:16:33.959Z,37.97
2018-01-19T13:19:01.927Z,37.94
2018-01-19T13:21:29.842Z,37.75
2018-01-19T13:23:57.851Z,37.43
2018-01-19T13:26:29.923Z,37.12
2018-01-19T13:28:57.737Z,37.09
2018-01-19T13:31:28.831Z,35.92
2018-01-19T13:33:56.600Z,36.65
2018-01-19T13:36:24.973Z,37.14
2018-01-19T13:38:55.080Z,37.44
2018-01-19T13:41:23.016Z,36.85
2018-01-19T13:43:50.781Z,36.75
2018-01-19T13:46:18.804Z,36.81
2018-01-19T13:48:48.714Z,35.75
2018-01-19T13:51:16.468Z,36.54
2018-01-19T13:53:44.270Z,37.10
2018-01-19T13:56:19.070Z,36.98
2018-01-19T13:58:47.135Z,37.36
2018-01-19T14:01:15.891Z,37.49
2018-01-19T14:03:43.589Z,37.04
2018-01-19T14:06:11.822Z,36.47
2018-01-19T14:08:41.881Z,36.36
2018-01-19T14:11:10.730Z,36.59
2018-01-19T14:13:38.979Z,36.64
2018-01-19T14:16:06.699Z,36.89
2018-01-19T14:18:34.472Z,36.94
2018-01-19T14:21:06.618Z,37.06
2018-01-19T14:23:34.855Z,37.26
2018-01-19T14:26:07.013Z,37.39
2018-01-19T14:28:35.044Z,37.54
2018-01-19T14:31:02.877Z,37.61
2018-01-19T14:33:32.794Z,37.50
2018-01-19T14:36:00.997Z,37.76
2018-01-19T14:38:31.943Z,37.64
2018-01-19T14:40:59.583Z,37.80
2018-01-19T14:43:29.621Z,37.81
2018-01-19T14:45:57.872Z,37.77
2018-01-19T14:48:25.797Z,37.89
2018-01-19T14:50:53.471Z,37.88
2018-01-19T14:53:21.109Z,37.82
2018-01-19T14:55:49.720Z,38.02
2018-01-19T14:58:17.366Z,38.26
2018-01-19T15:00:45.048Z,38.49
2018-01-19T15:03:12.701Z,38.72
2018-01-19T15:05:44.708Z,38.94
2018-01-19T15:08:12.471Z,39.18
2018-01-19T15:10:40.853Z,39.35
2018-01-19T15:13:16.668Z,39.51
2018-01-19T15:15:44.860Z,39.64
2018-01-19T15:18:12.840Z,39.75
2018-01-19T15:20:40.965Z,39.88
2018-01-19T15:23:09.082Z,39.91
2018-01-19T15:25:37.021Z,39.96
2018-01-19T15:28:05.213Z,40.09
2018-01-19T15:30:33.155Z,40.14
2018-01-19T15:33:05.220Z,40.26
2018-01-19T15:35:33.443Z,40.35
2018-01-19T15:38:01.344Z,40.38
2018-01-19T15:40:33.388Z,40.41
2018-01-19T15:43:01.504Z,40.57
2018-01-19T15:45:31.421Z,40.64
2018-01-19T15:47:59.488Z,40.75
2018-01-19T15:50:29.689Z,40.22
2018-01-19T15:52:58.020Z,40.29
2018-01-19T15:55:26.703Z,40.56
2018-01-19T15:57:54.782Z,40.23
2018-01-19T16:00:22.850Z,40.22
2018-01-19T16:02:51.530Z,40.22
2018-01-19T16:05:19.311Z,40.21
2018-01-19T16:07:54.813Z,40.27
2018-01-19T16:10:24.967Z,40.46
2018-01-19T16:12:52.920Z,40.78
2018-01-19T16:15:26.207Z,40.84
2018-01-19T16:17:54.150Z,40.87
2018-01-19T16:20:26.640Z,41.10
2018-01-19T16:22:56.780Z,41.30
2018-01-19T16:25:25.058Z,41.41
2018-01-19T16:27:53.285Z,41.43
2018-01-19T16:30:21.274Z,41.43
2018-01-19T16:32:49.577Z,41.50
2018-01-19T16:35:17.666Z,41.56
2018-01-19T16:37:49.112Z,41.64
2018-01-19T16:40:17.687Z,41.63
2018-01-19T16:42:45.804Z,41.65
2018-01-19T16:45:13.631Z,41.65
2018-01-19T16:47:44.186Z,41.76
2018-01-19T16:50:12.304Z,41.77
2018-01-19T16:52:43.065Z,41.88
2018-01-19T16:55:11.207Z,41.84
2018-01-19T16:57:39.372Z,41.99
2018-01-19T17:00:07.463Z,41.90
2018-01-19T17:02:42.145Z,41.88
2018-01-19T17:05:12.011Z,41.94
2018-01-19T17:07:40.594Z,41.87
2018-01-19T17:10:09.391Z,41.93
2018-01-19T17:12:42.685Z,42.13
2018-01-19T17:15:10.505Z,42.17
2018-01-19T17:17:40.981Z,42.24
2018-01-19T17:20:09.039Z,42.28
2018-01-19T17:22:37.417Z,42.29
2018-01-19T17:25:06.567Z,42.32
2018-01-19T17:27:34.804Z,42.34
2018-01-19T17:30:05.019Z,42.37
2018-01-19T17:32:33.119Z,42.48
2018-01-19T17:35:01.331Z,42.54
2018-01-19T17:37:29.626Z,42.59
2018-01-19T17:40:00.435Z,42.61
2018-01-19T17:42:30.480Z,42.74
2018-01-19T17:44:58.418Z,42.89
2018-01-19T17:47:27.351Z,42.94
2018-01-19T17:49:55.475Z,43.04
2018-01-19T17:52:25.686Z,43.12
2018-01-19T17:54:59.252Z,43.08
2018-01-19T17:57:27.307Z,43.18
2018-01-19T17:59:55.765Z,43.19
2018-01-19T18:02:28.074Z,43.25
2018-01-19T18:04:56.490Z,43.33
2018-01-19T18:07:24.839Z,43.45
2018-01-19T18:09:55.043Z,43.45
2018-01-19T18:12:23.616Z,43.60
2018-01-19T18:14:53.403Z,43.69
2018-01-19T18:17:21.593Z,43.65
2018-01-19T18:19:52.560Z,43.62
2018-01-19T18:22:21.326Z,43.67
2018-01-19T18:24:50.115Z,43.73
2018-01-19T18:27:22.285Z,43.70
2018-01-19T18:29:51.173Z,43.66
2018-01-19T18:32:19.137Z,43.48
2018-01-19T18:34:46.805Z,43.40
2018-01-19T18:37:14.642Z,43.61
2018-01-19T18:39:42.868Z,43.76
2018-01-19T18:42:10.900Z,43.88
2018-01-19T18:44:40.951Z,43.73
2018-01-19T18:47:09.835Z,43.79
2018-01-19T18:49:37.800Z,43.90
2018-01-19T18:52:06.286Z,43.83
2018-01-19T18:54:34.443Z,43.85
2018-01-19T18:57:09.766Z,43.85
2018-01-19T18:59:37.870Z,43.68
2018-01-19T19:02:12.246Z,43.70
2018-01-19T19:04:40.437Z,43.72
2018-01-19T19:07:08.380Z,43.81
2018-01-19T19:09:38.553Z,43.93
2018-01-19T19:12:07.784Z,43.96
2018-01-19T19:14:35.749Z,43.89
2018-01-19T19:17:11.541Z,43.82
2018-01-19T19:19:39.481Z,43.64
2018-01-19T19:22:10.561Z,43.56
2018-01-19T19:24:38.386Z,43.65
2018-01-19T19:27:10.096Z,43.59
2018-01-19T19:29:42.810Z,43.69
2018-01-19T19:32:10.934Z,43.71
2018-01-19T19:34:39.848Z,43.88
2018-01-19T19:37:08.213Z,43.97
2018-01-19T19:39:39.970Z,44.10
2018-01-19T19:42:08.880Z,44.16
2018-01-19T19:44:36.807Z,44.26
2018-01-19T19:47:09.708Z,44.32
2018-01-19T19:49:40.251Z,44.47
2018-01-19T19:52:07.935Z,44.59
2018-01-19T19:54:35.621Z,44.51
2018-01-19T19:57:03.645Z,44.57
2018-01-19T19:59:31.688Z,44.67
2018-01-19T20:01:59.981Z,44.67
2018-01-19T20:04:28.268Z,44.37
2018-01-19T20:06:58.776Z,44.28
2018-01-19T20:09:26.715Z,44.18
2018-01-19T20:11:54.880Z,44.19
2018-01-19T20:14:24.951Z,44.08
2018-01-19T20:16:57.307Z,44.13
2018-01-19T20:19:25.388Z,44.19
2018-01-19T20:21:55.968Z,44.25
2018-01-19T20:24:26.208Z,44.32
2018-01-19T20:26:54.410Z,44.27
2018-01-19T20:29:25.352Z,44.34
2018-01-19T20:31:55.576Z,44.41
2018-01-19T20:34:23.694Z,44.31
2018-01-19T20:36:51.911Z,44.44
2018-01-19T20:39:19.960Z,44.55
2018-01-19T20:41:48.368Z,44.41
2018-01-19T20:44:20.264Z,44.34
2018-01-19T20:46:48.382Z,44.22
2018-01-19T20:49:16.973Z,44.10
2018-01-19T20:51:45.103Z,44.11
2018-01-19T20:54:19.585Z,44.06
2018-01-19T20:56:50.356Z,44.03
2018-01-19T20:59:22.374Z,44.01
2018-01-19T21:01:50.415Z,44.05
2018-01-19T21:04:18.330Z,44.04
2018-01-19T21:06:49.136Z,44.22
2018-01-19T21:09:17.936Z,44.38
2018-01-19T21:11:46.052Z,44.44
2018-01-19T21:14:16.777Z,44.37
2018-01-19T21:16:45.610Z,44.21
2018-01-19T21:19:13.547Z,44.15
2018-01-19T21:21:41.938Z,44.09
2018-01-19T21:24:14.244Z,44.14
2018-01-19T21:26:44.155Z,44.10
2018-01-19T21:29:12.310Z,44.15
2018-01-19T21:31:40.525Z,44.20
2018-01-19T21:34:10.522Z,44.27
2018-01-19T21:36:38.708Z,44.33
2018-01-19T21:39:08.811Z,44.38
2018-01-19T21:41:36.876Z,44.31
2018-01-19T21:44:05.030Z,44.22
2018-01-19T21:46:33.192Z,44.19
2018-01-19T21:49:06.386Z,44.44
2018-01-19T21:51:34.577Z,44.41
2018-01-19T21:54:02.514Z,44.39
2018-01-19T21:56:30.780Z,44.33
2018-01-19T21:58:58.806Z,44.28
2018-01-19T22:01:29.888Z,44.27
2018-01-19T22:03:58.123Z,44.13
2018-01-19T22:06:26.703Z,44.06
2018-01-19T22:08:58.570Z,44.15
2018-01-19T22:11:26.341Z,44.22
2018-01-19T22:13:54.034Z,44.10
2018-01-19T22:16:22.672Z,44.13
2018-01-19T22:18:50.796Z,44.22
2018-01-19T22:21:18.616Z,44.16
2018-01-19T22:23:50.852Z,44.22
2018-01-19T22:26:19.275Z,44.23
2018-01-19T22:28:47.315Z,44.23
2018-01-19T22:31:16.110Z,44.25
2018-01-19T22:33:44.496Z,44.20
2018-01-19T22:36:13.256Z,44.18
2018-01-19T22:38:41.449Z,44.23
2018-01-19T22:41:13.976Z,44.28
2018-01-19T22:43:44.050Z,44.25
2018-01-19T22:46:14.115Z,44.18
2018-01-19T22:48:42.333Z,44.14
2018-01-19T22:51:10.995Z,44.17
2018-01-19T22:53:45.646Z,44.16
2018-01-19T22:56:13.415Z,44.17
2018-01-19T22:58:43.518Z,44.10
2018-01-19T23:01:20.615Z,44.13
2018-01-19T23:03:48.687Z,44.09
2018-01-19T23:06:18.949Z,44.12
2018-01-19T23:08:47.029Z,44.06
2018-01-19T23:11:16.286Z,44.18
2018-01-19T23:13:43.940Z,44.21
2018-01-19T23:16:13.960Z,44.29
2018-01-19T23:18:42.645Z,44.29
2018-01-19T23:21:12.868Z,44.24
2018-01-19T23:23:41.123Z,44.30
2018-01-19T23:26:09.160Z,44.30
2018-01-19T23:28:38.297Z,44.36
2018-01-19T23:31:06.194Z,44.35
2018-01-19T23:33:34.209Z,44.32
2018-01-19T23:36:06.514Z,44.33
2018-01-19T23:38:34.270Z,44.39
2018-01-19T23:41:01.991Z,44.40
2018-01-19T23:43:29.871Z,44.46
2018-01-19T23:45:57.936Z,44.52
2018-01-19T23:48:26.127Z,44.44
2018-01-19T23:50:54.066Z,44.42
2018-01-19T23:53:22.133Z,44.40
2018-01-19T23:55:50.321Z,44.43
2018-01-19T23:58:18.325Z,44.41
